createdAt,value
2018-08-04T00:02:17.128Z,57.30
2018-08-04T00:04:45.505Z,57.70
2018-08-04T00:07:14.069Z,57.90
2018-08-04T00:09:42.471Z,58.00
2018-08-04T00:12:11.858Z,57.90
2018-08-04T00:14:40.352Z,58.20
2018-08-04T00:17:08.710Z,58.00
2018-08-04T00:19:37.140Z,58.30
2018-08-04T00:22:05.572Z,58.70
2018-08-04T00:24:33.965Z,58.60
2018-08-04T00:27:02.338Z,58.70
2018-08-04T00:29:30.730Z,59.00
2018-08-04T00:31:59.130Z,59.10
2018-08-04T00:34:27.466Z,59.00
2018-08-04T00:36:55.838Z,59.30
2018-08-04T00:39:24.273Z,59.90
2018-08-04T00:41:52.780Z,59.50
2018-08-04T00:44:21.182Z,59.40
2018-08-04T00:46:49.535Z,59.80
2018-08-04T00:49:17.950Z,59.70
2018-08-04T00:51:46.484Z,59.60
2018-08-04T00:54:15.002Z,59.80
2018-08-04T00:56:43.551Z,59.90
2018-08-04T00:59:11.983Z,60.10
2018-08-04T01:01:40.416Z,60.40
2018-08-04T01:04:08.834Z,60.60
2018-08-04T01:09:07.456Z,60.80
2018-08-04T01:11:35.906Z,61.00
2018-08-04T01:14:04.351Z,61.10
2018-08-04T01:16:32.753Z,61.10
2018-08-04T01:19:01.163Z,61.20
2018-08-04T01:21:29.562Z,60.90
2018-08-04T01:23:57.971Z,61.00
2018-08-04T01:26:26.348Z,60.80
2018-08-04T01:28:54.682Z,60.90
2018-08-04T01:31:23.102Z,61.00
2018-08-04T01:33:51.794Z,60.90
2018-08-04T01:36:20.169Z,61.10
2018-08-04T01:38:48.521Z,61.20
2018-08-04T01:41:16.952Z,61.60
2018-08-04T01:43:45.301Z,61.60
2018-08-04T01:46:13.986Z,62.10
2018-08-04T01:48:42.430Z,62.00
2018-08-04T01:51:10.846Z,62.80
2018-08-04T01:53:39.251Z,63.30
2018-08-04T01:56:07.624Z,63.30
2018-08-04T02:01:04.100Z,63.70
2018-08-04T02:03:32.510Z,64.00
2018-08-04T02:06:00.883Z,65.30
2018-08-04T02:08:29.271Z,64.60
2018-08-04T02:10:57.738Z,65.20
2018-08-04T02:13:26.130Z,65.40
2018-08-04T02:15:54.504Z,65.60
2018-08-04T02:18:22.958Z,65.90
2018-08-04T02:20:51.331Z,65.80
2018-08-04T02:23:19.857Z,66.10
2018-08-04T02:25:48.247Z,66.50
2018-08-04T02:28:16.747Z,66.20
2018-08-04T02:30:45.213Z,66.20
2018-08-04T02:33:13.673Z,66.00
2018-08-04T02:35:42.048Z,66.10
2018-08-04T02:38:10.501Z,65.60
2018-08-04T02:40:38.985Z,65.60
2018-08-04T02:43:07.387Z,64.90
2018-08-04T02:45:35.782Z,64.90
2018-08-04T02:48:04.166Z,64.90
2018-08-04T02:50:32.563Z,64.50
2018-08-04T02:53:01.011Z,64.40
2018-08-04T02:55:29.373Z,64.60
2018-08-04T02:57:57.710Z,65.20
2018-08-04T03:00:26.083Z,65.40
2018-08-04T03:02:54.462Z,65.60
2018-08-04T03:05:22.919Z,66.00
2018-08-04T03:07:51.455Z,66.20
2018-08-04T03:10:19.914Z,66.80
2018-08-04T03:12:48.399Z,66.00
2018-08-04T03:15:16.840Z,65.70
2018-08-04T03:17:45.252Z,65.70
2018-08-04T03:20:13.735Z,66.10
2018-08-04T03:22:42.112Z,66.50
2018-08-04T03:25:10.482Z,66.20
2018-08-04T03:27:38.825Z,65.90
2018-08-04T03:30:07.328Z,66.00
2018-08-04T03:32:35.669Z,66.40
2018-08-04T03:35:04.296Z,66.40
2018-08-04T03:37:32.709Z,66.40
2018-08-04T03:40:01.124Z,67.10
2018-08-04T03:42:29.505Z,67.20
2018-08-04T03:44:57.888Z,67.50
2018-08-04T03:49:54.586Z,68.20
2018-08-04T03:52:23.063Z,67.60
2018-08-04T03:54:51.587Z,67.70
2018-08-04T03:57:20.070Z,67.30
2018-08-04T03:59:48.550Z,67.30
2018-08-04T04:02:16.883Z,67.80
2018-08-04T04:04:45.285Z,67.70
2018-08-04T04:07:13.738Z,68.00
2018-08-04T04:09:42.109Z,68.20
2018-08-04T04:12:10.526Z,68.20
2018-08-04T04:14:38.950Z,68.10
2018-08-04T04:17:07.433Z,68.20
2018-08-04T04:19:35.857Z,68.40
2018-08-04T04:22:04.538Z,68.30
2018-08-04T04:24:32.925Z,68.20
2018-08-04T04:27:01.302Z,68.90
2018-08-04T04:29:29.645Z,68.60
2018-08-04T04:31:58.047Z,68.90
2018-08-04T04:34:27.055Z,68.70
2018-08-04T04:36:55.861Z,68.60
2018-08-04T04:39:29.982Z,68.70
2018-08-04T04:41:59.518Z,68.70
2018-08-04T04:44:28.346Z,69.30
2018-08-04T04:46:58.789Z,68.90
2018-08-04T04:49:27.954Z,69.20
2018-08-04T04:51:57.222Z,69.20
2018-08-04T04:54:29.594Z,69.30
2018-08-04T04:56:58.383Z,68.90
2018-08-04T04:59:27.092Z,68.80
2018-08-04T05:01:56.676Z,68.90
2018-08-04T05:04:26.817Z,68.60
2018-08-04T05:06:58.696Z,69.40
2018-08-04T05:09:28.823Z,69.20
2018-08-04T05:12:02.349Z,69.40
2018-08-04T05:14:31.793Z,69.30
2018-08-04T05:17:01.508Z,69.70
2018-08-04T05:19:31.430Z,69.50
2018-08-04T05:22:00.755Z,69.60
2018-08-04T05:24:29.396Z,70.10
2018-08-04T05:26:58.359Z,70.00
2018-08-04T05:29:27.396Z,70.30
2018-08-04T05:31:56.623Z,70.00
2018-08-04T05:34:25.712Z,70.20
2018-08-04T05:36:54.250Z,70.10
2018-08-04T05:39:24.036Z,70.10
2018-08-04T05:41:53.544Z,70.20
2018-08-04T05:44:22.347Z,70.80
2018-08-04T05:46:51.124Z,69.80
2018-08-04T05:49:19.754Z,69.30
2018-08-04T05:51:48.359Z,68.00
2018-08-04T05:54:16.851Z,66.50
2018-08-04T05:56:46.071Z,64.30
2018-08-04T05:59:14.642Z,63.80
2018-08-04T06:01:43.351Z,62.20
2018-08-04T06:04:12.903Z,63.50
2018-08-04T06:06:41.859Z,63.50
2018-08-04T06:09:11.558Z,65.10
2018-08-04T06:11:40.691Z,65.70
2018-08-04T06:14:09.631Z,66.20
2018-08-04T06:16:38.294Z,66.60
2018-08-04T06:19:08.833Z,66.70
2018-08-04T06:21:37.742Z,67.20
2018-08-04T06:24:06.109Z,66.00
2018-08-04T06:26:34.450Z,65.40
2018-08-04T06:29:02.774Z,66.10
2018-08-04T06:31:31.193Z,67.00
2018-08-04T06:33:59.504Z,68.30
2018-08-04T06:36:27.805Z,69.50
2018-08-04T06:38:56.140Z,69.10
2018-08-04T06:41:24.538Z,68.90
2018-08-04T06:43:52.913Z,67.70
2018-08-04T06:46:21.306Z,66.90
2018-08-04T06:48:49.642Z,65.40
2018-08-04T06:51:18.150Z,64.10
2018-08-04T06:53:46.525Z,63.90
2018-08-04T06:56:14.899Z,63.80
2018-08-04T06:58:43.206Z,64.00
2018-08-04T07:01:11.581Z,63.90
2018-08-04T07:03:39.928Z,64.50
2018-08-04T07:06:08.343Z,64.60
2018-08-04T07:08:36.725Z,63.90
2018-08-04T07:11:05.101Z,63.70
2018-08-04T07:13:33.544Z,63.30
2018-08-04T07:16:01.983Z,62.60
2018-08-04T07:18:30.370Z,61.40
2018-08-04T07:20:58.685Z,60.80
2018-08-04T07:23:27.041Z,60.50
2018-08-04T07:25:55.382Z,60.80
2018-08-04T07:28:23.793Z,60.30
2018-08-04T07:30:52.105Z,60.60
2018-08-04T07:33:20.547Z,60.20
2018-08-04T07:35:48.897Z,59.90
2018-08-04T07:38:17.234Z,60.70
2018-08-04T07:40:45.608Z,59.70
2018-08-04T07:43:13.998Z,59.50
2018-08-04T07:45:42.629Z,59.20
2018-08-04T07:48:11.096Z,59.30
2018-08-04T07:50:39.598Z,58.50
2018-08-04T07:53:07.958Z,58.40
2018-08-04T07:55:36.451Z,58.60
2018-08-04T07:58:05.052Z,58.70
2018-08-04T08:00:33.457Z,58.40
2018-08-04T08:03:01.888Z,58.80
2018-08-04T08:05:30.236Z,58.70
2018-08-04T08:07:58.603Z,59.30
2018-08-04T08:10:27.087Z,57.90
2018-08-04T08:12:55.384Z,57.80
2018-08-04T08:15:23.850Z,57.60
2018-08-04T08:17:52.258Z,57.20
2018-08-04T08:20:20.682Z,56.80
2018-08-04T08:22:49.022Z,57.60
2018-08-04T08:25:17.431Z,57.20
2018-08-04T08:27:45.755Z,57.00
2018-08-04T08:30:15.078Z,56.40
2018-08-04T08:32:43.498Z,56.40
2018-08-04T08:35:12.097Z,57.30
2018-08-04T08:37:40.879Z,57.40
2018-08-04T08:40:09.775Z,58.30
2018-08-04T08:45:08.061Z,59.50
2018-08-04T08:47:36.461Z,60.50
2018-08-04T08:50:08.293Z,61.70
2018-08-04T08:52:37.192Z,61.80
2018-08-04T08:55:06.277Z,63.70
2018-08-04T08:57:34.677Z,62.90
2018-08-04T09:00:03.617Z,61.50
2018-08-04T09:02:32.025Z,61.20
2018-08-04T09:05:00.638Z,62.60
2018-08-04T09:07:28.994Z,61.00
2018-08-04T09:09:57.396Z,59.70
2018-08-04T09:12:25.796Z,59.70
2018-08-04T09:14:54.278Z,60.30
2018-08-04T09:17:22.695Z,59.80
2018-08-04T09:19:51.028Z,59.40
2018-08-04T09:22:19.408Z,59.80
2018-08-04T09:24:47.714Z,59.60
2018-08-04T09:27:16.056Z,58.90
2018-08-04T09:29:44.402Z,58.40
2018-08-04T09:32:12.761Z,57.90
2018-08-04T09:34:41.122Z,58.70
2018-08-04T09:37:09.812Z,58.20
2018-08-04T09:39:38.187Z,57.60
2018-08-04T09:42:06.833Z,57.00
2018-08-04T09:44:35.175Z,56.50
2018-08-04T09:47:03.542Z,56.40
2018-08-04T09:49:31.849Z,56.00
2018-08-04T09:52:00.246Z,55.40
2018-08-04T09:54:28.554Z,56.30
2018-08-04T09:56:56.929Z,55.80
2018-08-04T09:59:25.227Z,55.70
2018-08-04T10:02:24.723Z,55.50
2018-08-04T10:04:53.722Z,55.70
2018-08-04T10:07:22.190Z,56.20
2018-08-04T10:09:51.042Z,55.90
2018-08-04T10:12:19.461Z,57.30
2018-08-04T10:14:47.940Z,57.70
2018-08-04T10:17:16.289Z,57.90
2018-08-04T10:19:44.656Z,57.40
2018-08-04T10:22:13.633Z,57.10
2018-08-04T10:24:42.070Z,57.20
2018-08-04T10:27:10.721Z,57.70
2018-08-04T10:32:07.546Z,57.40
2018-08-04T10:34:35.645Z,56.90
2018-08-04T10:37:03.991Z,57.10
2018-08-04T10:39:33.025Z,57.30
2018-08-04T10:42:01.395Z,57.50
2018-08-04T10:44:29.811Z,58.00
2018-08-04T10:46:58.157Z,57.70
2018-08-04T10:49:26.527Z,57.80
2018-08-04T10:51:54.858Z,56.80
2018-08-04T10:54:23.178Z,57.40
2018-08-04T10:56:51.530Z,57.90
2018-08-04T10:59:20.430Z,57.90
2018-08-04T11:01:48.749Z,57.60
2018-08-04T11:04:17.101Z,57.70
2018-08-04T11:06:45.429Z,57.80
2018-08-04T11:09:13.749Z,57.30
2018-08-04T11:11:42.247Z,56.70
2018-08-04T11:14:11.090Z,57.50
2018-08-04T11:16:39.520Z,56.70
2018-08-04T11:19:08.022Z,56.80
2018-08-04T11:21:36.406Z,55.50
2018-08-04T11:24:04.736Z,55.30
2018-08-04T11:26:33.089Z,55.00
2018-08-04T11:29:01.351Z,54.70
2018-08-04T11:31:29.701Z,55.70
2018-08-04T11:33:58.068Z,53.80
2018-08-04T11:36:26.492Z,54.30
2018-08-04T11:38:54.894Z,54.00
2018-08-04T11:41:23.228Z,53.50
2018-08-04T11:43:51.626Z,53.90
2018-08-04T11:46:20.138Z,53.10
2018-08-04T11:48:48.458Z,52.90
2018-08-04T11:51:16.789Z,53.60
2018-08-04T11:53:45.166Z,54.20
2018-08-04T11:56:13.637Z,54.80
2018-08-04T11:58:42.078Z,55.20
2018-08-04T12:01:10.532Z,55.60
2018-08-04T12:03:38.874Z,56.40
2018-08-04T12:06:07.230Z,56.30
2018-08-04T12:08:35.582Z,56.30
2018-08-04T12:11:04.025Z,56.10
2018-08-04T12:13:32.342Z,57.20
2018-08-04T12:16:00.715Z,57.60
2018-08-04T12:18:29.087Z,57.20
2018-08-04T12:20:57.500Z,57.20
2018-08-04T12:23:25.832Z,57.70
2018-08-04T12:25:54.148Z,57.10
2018-08-04T12:28:22.571Z,56.80
2018-08-04T12:30:51.026Z,57.30
2018-08-04T12:33:19.374Z,56.30
2018-08-04T12:35:47.691Z,55.60
2018-08-04T12:38:16.055Z,55.90
2018-08-04T12:40:44.365Z,54.50
2018-08-04T12:43:12.734Z,53.20
2018-08-04T12:45:41.066Z,53.70
2018-08-04T12:48:09.467Z,52.80
2018-08-04T12:50:37.860Z,51.60
2018-08-04T12:53:06.297Z,50.80
2018-08-04T12:55:34.663Z,50.80
2018-08-04T12:58:03.066Z,50.60
2018-08-04T13:00:31.530Z,50.90
2018-08-04T13:02:59.836Z,50.90
2018-08-04T13:05:28.215Z,50.80
2018-08-04T13:07:56.572Z,50.90
2018-08-04T13:10:24.935Z,50.50
2018-08-04T13:12:53.808Z,51.40
2018-08-04T13:15:22.218Z,52.20
2018-08-04T13:17:50.629Z,52.00
2018-08-04T13:20:18.984Z,51.40
2018-08-04T13:22:47.309Z,51.20
2018-08-04T13:25:15.635Z,51.40
2018-08-04T13:27:43.966Z,52.20
2018-08-04T13:30:12.382Z,52.60
2018-08-04T13:32:40.725Z,51.90
2018-08-04T13:35:09.088Z,52.50
2018-08-04T13:37:37.419Z,55.40
2018-08-04T13:40:05.848Z,56.80
2018-08-04T13:42:34.208Z,59.10
2018-08-04T13:45:02.847Z,62.50
2018-08-04T13:49:59.244Z,79.50
2018-08-04T13:52:27.643Z,89.20
2018-08-04T13:54:56.034Z,98.30
2018-08-04T13:57:24.373Z,99.90
2018-08-04T13:59:52.701Z,99.90
2018-08-04T14:02:21.109Z,99.90
2018-08-04T14:04:49.433Z,99.90
2018-08-04T14:07:17.782Z,99.90
2018-08-04T14:09:46.157Z,99.90
2018-08-04T14:12:14.527Z,99.90
2018-08-04T14:14:42.841Z,98.20
2018-08-04T14:17:11.242Z,99.90
2018-08-04T14:19:40.005Z,99.90
2018-08-04T14:22:08.460Z,99.90
2018-08-04T14:24:36.798Z,99.90
2018-08-04T14:27:05.319Z,99.90
2018-08-04T14:29:33.638Z,99.90
2018-08-04T14:32:02.152Z,99.90
2018-08-04T14:34:30.546Z,99.90
2018-08-04T14:36:58.932Z,99.90
2018-08-04T14:39:27.301Z,99.90
2018-08-04T14:41:55.774Z,99.90
2018-08-04T14:44:24.151Z,99.90
2018-08-04T14:46:52.498Z,99.90
2018-08-04T14:49:20.854Z,99.90
2018-08-04T14:51:49.550Z,99.90
2018-08-04T14:54:17.920Z,99.90
2018-08-04T14:56:46.252Z,99.90
2018-08-04T14:59:14.644Z,99.90
2018-08-04T15:01:42.953Z,99.90
2018-08-04T15:04:11.365Z,99.90
2018-08-04T15:06:39.946Z,99.90
2018-08-04T15:09:10.365Z,99.90
2018-08-04T15:14:07.043Z,99.90
2018-08-04T15:16:35.399Z,99.90
2018-08-04T15:19:04.141Z,99.90
2018-08-04T15:21:32.579Z,99.90
2018-08-04T15:24:01.140Z,99.90
2018-08-04T15:26:29.677Z,99.90
2018-08-04T15:28:58.108Z,99.90
2018-08-04T15:31:26.536Z,99.90
2018-08-04T15:33:54.997Z,97.70
2018-08-04T15:36:23.363Z,97.90
2018-08-04T15:38:51.742Z,98.40
2018-08-04T15:41:20.107Z,97.90
2018-08-04T15:43:48.523Z,95.20
2018-08-04T15:46:17.081Z,94.00
2018-08-04T15:48:45.730Z,94.20
2018-08-04T15:53:42.138Z,91.30
2018-08-04T15:56:10.498Z,91.40
2018-08-04T15:58:38.830Z,91.60
2018-08-04T16:01:07.325Z,88.40
2018-08-04T16:03:35.827Z,88.40
2018-08-04T16:06:04.322Z,89.70
2018-08-04T16:08:32.652Z,88.80
2018-08-04T16:11:01.114Z,89.40
2018-08-04T16:13:33.838Z,88.70
2018-08-04T16:16:02.182Z,84.60
2018-08-04T16:18:30.569Z,77.10
2018-08-04T16:20:58.969Z,73.70
2018-08-04T16:23:27.325Z,72.70
2018-08-04T16:25:55.699Z,72.10
2018-08-04T16:28:24.148Z,72.70
2018-08-04T16:30:52.470Z,73.80
2018-08-04T16:35:48.995Z,73.40
2018-08-04T16:38:17.323Z,74.50
2018-08-04T16:40:45.666Z,75.10
2018-08-04T16:43:14.610Z,75.70
2018-08-04T16:45:49.878Z,74.00
2018-08-04T16:48:18.217Z,73.50
2018-08-04T16:50:46.534Z,73.80
2018-08-04T16:53:14.915Z,74.80
2018-08-04T16:55:43.305Z,75.00
2018-08-04T16:58:11.680Z,75.70
2018-08-04T17:00:40.081Z,74.70
2018-08-04T17:03:08.616Z,74.20
2018-08-04T17:05:36.955Z,71.10
2018-08-04T17:08:06.100Z,72.50
2018-08-04T17:10:34.457Z,72.40
2018-08-04T17:13:02.900Z,73.70
2018-08-04T17:15:31.822Z,72.70
2018-08-04T17:18:00.204Z,73.90
2018-08-04T17:22:57.012Z,75.60
2018-08-04T17:25:25.778Z,73.70
2018-08-04T17:27:54.435Z,74.20
2018-08-04T17:30:22.841Z,73.30
2018-08-04T17:32:51.272Z,74.60
2018-08-04T17:35:19.669Z,72.00
2018-08-04T17:37:48.109Z,72.20
2018-08-04T17:40:16.531Z,72.40
2018-08-04T17:42:44.900Z,72.70
2018-08-04T17:45:13.304Z,73.50
2018-08-04T17:47:41.716Z,74.40
2018-08-04T17:50:10.146Z,73.40
2018-08-04T17:52:38.534Z,74.70
2018-08-04T17:55:07.018Z,74.20
2018-08-04T17:57:35.386Z,71.50
2018-08-04T18:00:03.882Z,69.70
2018-08-04T18:02:32.750Z,70.50
2018-08-04T18:05:01.146Z,70.50
2018-08-04T18:07:29.604Z,71.30
2018-08-04T18:09:58.011Z,69.70
2018-08-04T18:12:26.377Z,68.80
2018-08-04T18:14:54.758Z,66.10
2018-08-04T18:17:23.150Z,65.30
2018-08-04T18:19:51.555Z,65.20
2018-08-04T18:22:20.315Z,64.00
2018-08-04T18:24:48.689Z,64.30
2018-08-04T18:27:17.039Z,64.40
2018-08-04T18:29:45.571Z,64.00
2018-08-04T18:32:18.003Z,61.80
2018-08-04T18:34:46.328Z,64.70
2018-08-04T18:37:14.673Z,64.10
2018-08-04T18:39:43.665Z,65.20
2018-08-04T18:42:12.028Z,65.00
2018-08-04T18:44:40.447Z,64.00
2018-08-04T18:47:09.146Z,61.80
2018-08-04T18:49:37.518Z,64.20
2018-08-04T18:52:05.924Z,64.60
2018-08-04T18:54:34.446Z,65.30
2018-08-04T18:57:02.799Z,64.90
2018-08-04T18:59:31.248Z,64.00
2018-08-04T19:01:59.578Z,64.10
2018-08-04T19:04:27.906Z,64.60
2018-08-04T19:06:56.348Z,63.80
2018-08-04T19:09:24.769Z,63.70
2018-08-04T19:11:53.226Z,64.00
2018-08-04T19:14:21.575Z,64.20
2018-08-04T19:16:49.945Z,65.80
2018-08-04T19:19:18.490Z,65.20
2018-08-04T19:21:46.834Z,63.60
2018-08-04T19:24:15.756Z,64.30
2018-08-04T19:26:44.156Z,62.40
2018-08-04T19:29:12.531Z,62.10
2018-08-04T19:31:40.899Z,64.70
2018-08-04T19:34:09.349Z,64.80
2018-08-04T19:36:37.710Z,66.60
2018-08-04T19:39:07.853Z,64.90
2018-08-04T19:41:36.219Z,64.90
2018-08-04T19:44:04.578Z,64.40
2018-08-04T19:49:01.791Z,65.50
2018-08-04T19:51:30.167Z,66.90
2018-08-04T19:53:58.594Z,68.00
2018-08-04T19:56:27.606Z,65.20
2018-08-04T19:58:55.957Z,65.80
2018-08-04T20:01:24.454Z,66.50
2018-08-04T20:03:52.900Z,68.30
2018-08-04T20:06:21.289Z,68.80
2018-08-04T20:08:49.641Z,67.40
2018-08-04T20:11:18.387Z,69.00
2018-08-04T20:13:46.759Z,68.20
2018-08-04T20:16:15.211Z,70.70
2018-08-04T20:18:43.676Z,69.90
2018-08-04T20:21:12.120Z,70.50
2018-08-04T20:23:40.531Z,70.90
2018-08-04T20:26:08.923Z,70.50
2018-08-04T20:28:37.329Z,71.30
2018-08-04T20:31:05.752Z,70.00
2018-08-04T20:33:34.169Z,72.10
2018-08-04T20:36:02.667Z,71.70
2018-08-04T20:40:59.099Z,70.30
2018-08-04T20:43:34.007Z,69.80
2018-08-04T20:46:02.407Z,70.30
2018-08-04T20:48:30.786Z,71.10
2018-08-04T20:50:59.650Z,71.20
2018-08-04T20:53:28.028Z,71.20
2018-08-04T20:55:56.490Z,70.60
2018-08-04T20:58:24.903Z,70.70
2018-08-04T21:01:04.533Z,70.60
2018-08-04T21:03:32.826Z,71.30
2018-08-04T21:06:01.285Z,71.50
2018-08-04T21:08:29.598Z,71.90
2018-08-04T21:10:58.104Z,71.70
2018-08-04T21:13:26.464Z,71.90
2018-08-04T21:15:54.790Z,72.60
2018-08-04T21:18:23.123Z,73.20
2018-08-04T21:20:51.455Z,72.20
2018-08-04T21:23:19.809Z,72.70
2018-08-04T21:25:48.534Z,74.00
2018-08-04T21:28:16.942Z,74.20
2018-08-04T21:30:45.566Z,75.20
2018-08-04T21:33:14.458Z,74.00
2018-08-04T21:35:42.816Z,74.50
2018-08-04T21:40:39.183Z,74.10
2018-08-04T21:43:07.711Z,74.80
2018-08-04T21:45:36.243Z,73.80
2018-08-04T21:48:04.799Z,74.40
2018-08-04T21:50:33.255Z,76.60
2018-08-04T21:53:01.700Z,75.70
2018-08-04T21:55:30.078Z,75.30
2018-08-04T21:57:58.497Z,76.20
2018-08-04T22:00:26.970Z,76.40
2018-08-04T22:02:59.226Z,76.80
2018-08-04T22:05:28.701Z,77.80
2018-08-04T22:08:09.381Z,77.10
2018-08-04T22:10:38.009Z,77.50
2018-08-04T22:13:06.902Z,78.50
2018-08-04T22:15:35.504Z,77.30
2018-08-04T22:18:04.005Z,77.90
2018-08-04T22:20:32.377Z,76.90
2018-08-04T22:23:00.791Z,78.70
2018-08-04T22:25:30.175Z,77.20
2018-08-04T22:27:59.854Z,78.50
2018-08-04T22:30:28.289Z,78.40
2018-08-04T22:32:56.703Z,78.50
2018-08-04T22:35:25.586Z,78.90
2018-08-04T22:37:54.002Z,78.10
2018-08-04T22:40:22.705Z,79.10
2018-08-04T22:42:51.072Z,79.00
2018-08-04T22:46:22.742Z,79.60
2018-08-04T22:51:35.255Z,79.90
2018-08-04T22:54:03.739Z,80.90
2018-08-04T22:56:32.366Z,80.70
2018-08-04T22:59:00.745Z,82.20
2018-08-04T23:01:29.103Z,81.40
2018-08-04T23:03:58.097Z,82.80
2018-08-04T23:06:34.839Z,82.40
2018-08-04T23:09:03.903Z,82.80
2018-08-04T23:11:32.303Z,83.30
2018-08-04T23:14:00.636Z,83.10
2018-08-04T23:16:28.979Z,83.10
2018-08-04T23:18:57.333Z,83.10
2018-08-04T23:21:25.678Z,83.70
2018-08-04T23:23:54.064Z,84.50
2018-08-04T23:26:22.478Z,83.90
2018-08-04T23:28:50.779Z,84.90
2018-08-04T23:31:19.123Z,84.70
2018-08-04T23:33:47.462Z,85.50
2018-08-04T23:36:15.850Z,84.20
2018-08-04T23:38:44.515Z,85.70
2018-08-04T23:41:12.869Z,85.40
2018-08-04T23:43:41.229Z,85.80
2018-08-04T23:46:09.620Z,86.50
2018-08-04T23:48:37.959Z,86.40
2018-08-04T23:51:06.010Z,87.40
2018-08-04T23:53:34.658Z,87.50
2018-08-04T23:56:03.226Z,86.60
2018-08-04T23:58:31.566Z,86.10
